Time;durP1;ratioP1;P1;durP2;ratioP2;P2;SDS_P1;SDS_P2;PMS_P1;PMS_P2;Temp;Humidity;BMP_temperature;BMP_pressure;BME280_temperature;BME280_humidity;BME280_pressure;Samples;Min_cycle;Max_cycle;Signal;HPM_P1;HPM_P2
2022/08/16 00:00:59;;;;;;;15.80;13.10;;;21.10;99.90;;;;;;4755111;30;20055;-93
2022/08/16 00:03:30;;;;;;;15.88;11.90;;;21.10;99.90;;;;;;4753516;30;20349;-94
2022/08/16 00:05:58;;;;;;;13.55;11.18;;;21.10;99.90;;;;;;4754949;30;20081;-94
2022/08/16 00:08:30;;;;;;;17.17;12.15;;;21.10;99.90;;;;;;4755066;30;20146;-93
2022/08/16 00:10:56;;;;;;;15.93;12.10;;;21.00;99.90;;;;;;4754770;30;20067;-93
2022/08/16 00:13:22;;;;;;;17.08;12.43;;;21.00;99.90;;;;;;4753865;30;20055;-92
2022/08/16 00:15:48;;;;;;;15.85;12.95;;;21.00;99.90;;;;;;4753929;30;20094;-94
2022/08/16 00:18:16;;;;;;;18.85;13.07;;;21.00;99.90;;;;;;4756201;30;20062;-94
2022/08/16 00:20:44;;;;;;;22.20;13.57;;;21.00;99.90;;;;;;4754885;30;20108;-93
2022/08/16 00:23:11;;;;;;;19.83;14.57;;;21.00;99.90;;;;;;4754524;30;20446;-94
2022/08/16 00:25:37;;;;;;;16.85;13.75;;;21.00;99.90;;;;;;4754978;30;20062;-94
2022/08/16 00:28:06;;;;;;;17.45;15.55;;;21.00;99.90;;;;;;4769099;30;20066;-95
2022/08/16 00:30:32;;;;;;;17.42;15.20;;;21.00;99.90;;;;;;4754983;30;20574;-94
2022/08/16 00:33:02;;;;;;;17.58;14.57;;;20.90;99.90;;;;;;4754405;30;20452;-94
2022/08/16 00:35:33;;;;;;;16.15;13.95;;;20.90;99.90;;;;;;4753811;30;20055;-94
2022/08/16 00:38:02;;;;;;;20.10;15.65;;;20.90;99.90;;;;;;4768674;30;20058;-92
2022/08/16 00:40:37;;;;;;;18.77;14.20;;;20.90;99.90;;;;;;4768995;30;20059;-93
2022/08/16 00:43:09;;;;;;;17.45;14.10;;;20.90;99.90;;;;;;4768655;30;20458;-93
2022/08/16 00:46:05;;;;;;;18.80;14.52;;;20.90;99.90;;;;;;4768743;30;20059;-93
2022/08/16 00:48:32;;;;;;;16.77;13.27;;;20.90;99.90;;;;;;4755060;30;20058;-92
2022/08/16 00:50:59;;;;;;;18.77;15.02;;;20.80;99.90;;;;;;4771035;30;20082;-93
2022/08/16 00:53:25;;;;;;;16.08;13.27;;;20.80;99.90;;;;;;4769361;30;20120;-94
2022/08/16 00:55:54;;;;;;;17.15;14.27;;;20.90;99.90;;;;;;4754205;30;20489;-93
2022/08/16 00:58:22;;;;;;;18.80;15.10;;;20.90;99.90;;;;;;4752310;30;20055;-93
2022/08/16 01:00:49;;;;;;;16.13;14.48;;;20.90;99.90;;;;;;4769771;30;20055;-93
2022/08/16 01:03:17;;;;;;;20.33;15.65;;;20.80;99.90;;;;;;4737883;30;20048;-93
2022/08/16 01:05:46;;;;;;;21.45;15.95;;;20.80;99.90;;;;;;4737767;30;20079;-94
2022/08/16 01:08:15;;;;;;;18.45;14.45;;;20.80;99.90;;;;;;4735678;30;20511;-93
2022/08/16 01:10:41;;;;;;;19.70;15.18;;;20.80;99.90;;;;;;4736369;30;20047;-94
2022/08/16 01:13:12;;;;;;;17.77;14.10;;;20.80;99.90;;;;;;4735015;30;20051;-92
2022/08/16 01:15:43;;;;;;;21.58;14.93;;;20.80;99.90;;;;;;4736059;30;20430;-93
2022/08/16 01:18:16;;;;;;;17.77;14.07;;;20.80;99.90;;;;;;4735872;30;20063;-93
2022/08/16 01:20:49;;;;;;;22.45;14.32;;;20.80;99.90;;;;;;4735598;30;20051;-93
2022/08/16 01:23:33;;;;;;;18.13;14.02;;;20.70;99.90;;;;;;4750840;30;20055;-92
2022/08/16 01:25:59;;;;;;;16.85;13.43;;;20.70;99.90;;;;;;4736321;30;20087;-93
2022/08/16 01:28:27;;;;;;;16.42;13.70;;;20.70;99.90;;;;;;4752690;30;20138;-94
2022/08/16 01:30:56;;;;;;;17.33;12.95;;;20.70;99.90;;;;;;4738725;30;20048;-93
2022/08/16 01:33:25;;;;;;;14.32;12.82;;;20.60;99.90;;;;;;4738679;30;20224;-93
2022/08/16 01:35:57;;;;;;;25.40;12.82;;;20.60;99.90;;;;;;4739928;30;20099;-94
2022/08/16 01:38:30;;;;;;;17.00;12.75;;;20.60;99.90;;;;;;4739233;30;20457;-94
2022/08/16 01:41:07;;;;;;;17.10;12.73;;;20.60;99.90;;;;;;4739674;30;20108;-93
2022/08/16 01:43:35;;;;;;;16.48;12.50;;;20.60;99.90;;;;;;4738783;30;20124;-93
2022/08/16 01:46:21;;;;;;;17.80;13.55;;;20.60;99.90;;;;;;4738979;30;20044;-93
2022/08/16 01:48:48;;;;;;;20.48;13.57;;;20.60;99.90;;;;;;4738927;30;20142;-93
2022/08/16 01:51:17;;;;;;;19.98;14.45;;;20.50;99.90;;;;;;4744077;30;20399;-93
2022/08/16 01:53:43;;;;;;;19.02;14.60;;;20.50;99.90;;;;;;4755691;30;20606;-93
2022/08/16 01:56:09;;;;;;;19.83;14.90;;;20.50;99.90;;;;;;4755039;30;20142;-93
2022/08/16 01:58:35;;;;;;;19.42;13.75;;;20.60;99.90;;;;;;4753740;30;20077;-94
2022/08/16 02:01:01;;;;;;;17.83;14.15;;;20.40;99.90;;;;;;4753273;30;20150;-94
2022/08/16 02:03:28;;;;;;;17.77;14.57;;;20.40;99.90;;;;;;4752928;30;20060;-92
2022/08/16 02:05:56;;;;;;;17.20;14.65;;;20.40;99.90;;;;;;4754919;30;20471;-94
2022/08/16 02:08:25;;;;;;;19.00;15.85;;;20.40;99.90;;;;;;4753064;30;20510;-93
2022/08/16 02:10:53;;;;;;;17.67;14.68;;;20.40;99.90;;;;;;4753418;30;20047;-93
2022/08/16 02:13:20;;;;;;;19.65;16.23;;;20.30;99.90;;;;;;4752987;30;20417;-93
2022/08/16 02:15:46;;;;;;;20.38;16.90;;;20.30;99.90;;;;;;4752485;30;20510;-93
2022/08/16 02:18:12;;;;;;;16.83;15.13;;;20.30;99.90;;;;;;4753240;30;20048;-93
2022/08/16 02:20:40;;;;;;;24.58;16.70;;;20.20;99.90;;;;;;4753683;30;20051;-93
2022/08/16 02:23:07;;;;;;;17.20;15.07;;;20.20;99.90;;;;;;4752201;30;20062;-93
2022/08/16 02:25:34;;;;;;;19.45;16.13;;;20.00;99.90;;;;;;4753452;30;20112;-92
2022/08/16 02:28:00;;;;;;;19.67;13.95;;;20.10;99.90;;;;;;4753358;30;20113;-93
2022/08/16 02:30:29;;;;;;;16.48;12.73;;;20.00;99.90;;;;;;4765351;30;20451;-94
2022/08/16 02:32:56;;;;;;;20.85;12.88;;;20.00;99.90;;;;;;4738702;30;20128;-93
2022/08/16 02:35:25;;;;;;;18.65;12.98;;;20.00;99.90;;;;;;4767729;30;20485;-94
2022/08/16 02:37:53;;;;;;;18.88;15.25;;;20.00;99.90;;;;;;4737897;30;20223;-94
2022/08/16 02:40:20;;;;;;;21.58;18.98;;;20.00;99.90;;;;;;4738719;30;20056;-93
2022/08/16 02:42:53;;;;;;;23.63;16.98;;;20.00;99.90;;;;;;4739309;30;20051;-92
2022/08/16 02:45:20;;;;;;;;;;;20.00;99.90;;;;;;4739911;30;20051;-93
2022/08/16 02:47:46;;;;;;;21.75;18.58;;;20.00;99.90;;;;;;4753313;30;19969;-95
2022/08/16 02:50:11;;;;;;;23.60;18.63;;;20.00;99.90;;;;;;4738739;30;20099;-93
2022/08/16 02:52:37;;;;;;;22.80;17.95;;;20.00;99.90;;;;;;4737780;30;20056;-93
2022/08/16 02:55:03;;;;;;;21.05;18.55;;;20.00;99.90;;;;;;4767529;30;20044;-93
2022/08/16 02:57:29;;;;;;;22.38;19.35;;;20.00;99.90;;;;;;4739234;30;20074;-94
2022/08/16 02:59:56;;;;;;;28.00;19.60;;;20.00;99.90;;;;;;4768190;30;20044;-93
2022/08/16 03:02:21;;;;;;;26.13;19.27;;;20.00;99.90;;;;;;4751769;30;20052;-94
2022/08/16 03:04:47;;;;;;;29.80;20.35;;;20.00;99.90;;;;;;4737983;30;20062;-93
2022/08/16 03:07:13;;;;;;;37.42;21.05;;;20.00;99.90;;;;;;4767306;30;20098;-92
2022/08/16 03:09:39;;;;;;;28.63;20.80;;;20.00;99.90;;;;;;4767691;30;20486;-93
2022/08/16 03:12:06;;;;;;;22.90;20.42;;;20.00;99.90;;;;;;4751963;30;20130;-93
2022/08/16 03:14:32;;;;;;;27.55;20.17;;;20.00;99.90;;;;;;4737928;30;20051;-93
2022/08/16 03:16:59;;;;;;;23.33;18.90;;;20.00;99.90;;;;;;4737555;30;20180;-94
2022/08/16 03:19:26;;;;;;;24.20;19.75;;;20.00;99.90;;;;;;4750230;30;20054;-93
2022/08/16 03:21:52;;;;;;;26.20;19.83;;;20.00;99.90;;;;;;4770262;30;20095;-93
2022/08/16 03:24:17;;;;;;;24.33;20.00;;;20.00;99.90;;;;;;4754899;30;20055;-92
2022/08/16 03:26:43;;;;;;;26.13;19.95;;;20.00;99.90;;;;;;4754559;30;20063;-92
2022/08/16 03:29:10;;;;;;;29.60;21.77;;;20.00;99.90;;;;;;4755902;30;20052;-94
2022/08/16 03:31:36;;;;;;;26.40;20.10;;;20.00;99.90;;;;;;4756460;30;20043;-93
2022/08/16 03:34:02;;;;;;;26.48;19.75;;;19.90;99.90;;;;;;4769351;30;20416;-93
2022/08/16 03:36:28;;;;;;;27.05;19.10;;;19.90;99.90;;;;;;4754757;30;20062;-93
2022/08/16 03:38:54;;;;;;;23.00;20.45;;;19.90;99.90;;;;;;4754908;30;20051;-93
2022/08/16 03:41:21;;;;;;;27.98;19.70;;;19.90;99.90;;;;;;4754134;30;20059;-93
2022/08/16 03:43:47;;;;;;;23.75;19.20;;;19.80;99.90;;;;;;4755672;30;20100;-94
2022/08/16 03:46:12;;;;;;;27.40;19.13;;;19.80;99.90;;;;;;4756268;30;20055;-93
2022/08/16 03:48:38;;;;;;;27.45;19.13;;;19.80;99.90;;;;;;4755796;30;20055;-93
2022/08/16 03:51:07;;;;;;;26.02;19.52;;;19.70;99.90;;;;;;4765383;30;20070;-94
2022/08/16 03:53:34;;;;;;;37.63;19.95;;;19.70;99.90;;;;;;4754218;30;20055;-95
2022/08/16 03:56:00;;;;;;;26.83;19.85;;;19.50;99.90;;;;;;4754757;30;20047;-94
2022/08/16 03:58:26;;;;;;;24.83;19.67;;;19.60;99.90;;;;;;4753711;30;20111;-94
2022/08/16 04:00:54;;;;;;;25.33;20.55;;;19.50;99.90;;;;;;4754116;30;20079;-94
2022/08/16 04:03:20;;;;;;;25.77;18.65;;;19.40;99.90;;;;;;4753969;30;20051;-93
2022/08/16 04:05:50;;;;;;;27.55;20.05;;;19.40;99.90;;;;;;4754695;30;20053;-93
2022/08/16 04:08:19;;;;;;;24.10;20.17;;;19.40;99.90;;;;;;4753820;30;20055;-94
2022/08/16 04:10:48;;;;;;;26.50;19.83;;;19.40;99.90;;;;;;4754522;30;20064;-93
2022/08/16 04:13:15;;;;;;;24.33;20.13;;;19.30;99.90;;;;;;4753696;30;20528;-93
2022/08/16 04:15:41;;;;;;;27.80;19.30;;;19.30;99.90;;;;;;4755442;30;20477;-92
2022/08/16 04:18:08;;;;;;;27.38;20.33;;;19.30;99.90;;;;;;4755441;30;20055;-94
2022/08/16 04:20:34;;;;;;;29.38;21.25;;;19.20;99.90;;;;;;4753940;30;20057;-93
2022/08/16 04:23:07;;;;;;;23.63;20.13;;;19.20;99.90;;;;;;4756698;30;20150;-94
2022/08/16 04:25:34;;;;;;;27.33;20.15;;;19.20;99.90;;;;;;4768876;30;20055;-93
2022/08/16 04:28:03;;;;;;;24.27;20.15;;;19.20;99.90;;;;;;4756654;30;20175;-94
2022/08/16 04:30:29;;;;;;;31.85;20.75;;;19.20;99.90;;;;;;4748827;30;20047;-94
2022/08/16 04:32:55;;;;;;;25.88;19.77;;;19.10;99.90;;;;;;4771202;30;20061;-93
2022/08/16 04:35:22;;;;;;;23.80;19.50;;;19.10;99.90;;;;;;4768428;30;20134;-94
2022/08/16 04:37:52;;;;;;;30.95;20.80;;;19.10;99.90;;;;;;4768652;30;20101;-93
2022/08/16 04:40:20;;;;;;;22.77;19.17;;;19.10;99.90;;;;;;4769848;30;20055;-94
2022/08/16 04:42:46;;;;;;;27.50;20.88;;;19.10;99.90;;;;;;4768686;30;20055;-93
2022/08/16 04:45:13;;;;;;;25.50;18.60;;;19.10;99.90;;;;;;4770700;29;20456;-94
2022/08/16 04:47:40;;;;;;;24.13;19.02;;;19.10;99.90;;;;;;4768773;30;20051;-93
2022/08/16 04:50:10;;;;;;;25.63;19.10;;;19.10;99.90;;;;;;4768697;30;20051;-94
2022/08/16 04:52:37;;;;;;;29.20;20.50;;;19.00;99.90;;;;;;4768911;30;20087;-94
2022/08/16 04:55:12;;;;;;;27.73;19.65;;;19.10;99.90;;;;;;4770435;30;20237;-94
2022/08/16 04:57:39;;;;;;;23.48;19.73;;;19.10;99.90;;;;;;4768148;30;20139;-94
2022/08/16 05:00:10;;;;;;;25.95;19.02;;;19.10;99.90;;;;;;4768610;30;20089;-93
2022/08/16 05:02:37;;;;;;;21.45;18.23;;;19.10;99.90;;;;;;4767867;30;20051;-93
2022/08/16 05:05:04;;;;;;;25.90;18.40;;;19.10;99.90;;;;;;4753371;30;20058;-93
2022/08/16 05:07:30;;;;;;;23.55;18.70;;;19.10;99.90;;;;;;4753753;30;20047;-95
2022/08/16 05:09:56;;;;;;;21.60;18.33;;;19.10;99.90;;;;;;4769326;30;20121;-93
2022/08/16 05:12:21;;;;;;;22.27;18.73;;;19.10;99.90;;;;;;4767710;30;20489;-94
2022/08/16 05:14:47;;;;;;;23.83;18.50;;;19.10;99.90;;;;;;4768928;30;20055;-95
2022/08/16 05:17:13;;;;;;;21.05;18.30;;;19.10;99.90;;;;;;4767625;30;20051;-94
2022/08/16 05:19:39;;;;;;;28.27;18.63;;;19.10;99.90;;;;;;4754276;30;20092;-95
2022/08/16 05:22:05;;;;;;;25.65;18.17;;;19.10;99.90;;;;;;4761044;30;20151;-93
2022/08/16 05:24:31;;;;;;;25.35;18.30;;;19.20;99.90;;;;;;4761262;30;20093;-94
2022/08/16 05:26:56;;;;;;;25.80;17.27;;;19.20;99.90;;;;;;4759085;30;20056;-94
2022/08/16 05:29:22;;;;;;;22.20;18.65;;;19.30;99.90;;;;;;4751651;30;20546;-94
2022/08/16 05:31:48;;;;;;;26.75;18.00;;;19.30;99.90;;;;;;4759394;30;20074;-92
2022/08/16 05:34:15;;;;;;;24.60;17.67;;;19.40;99.90;;;;;;4759477;30;20047;-92
2022/08/16 05:36:41;;;;;;;24.42;17.85;;;19.40;99.90;;;;;;4758232;30;20143;-94
2022/08/16 05:39:08;;;;;;;21.20;17.13;;;19.40;99.90;;;;;;4759601;30;20134;-94
2022/08/16 05:41:34;;;;;;;29.35;18.10;;;19.50;99.90;;;;;;4757259;30;20058;-93
2022/08/16 05:44:00;;;;;;;21.00;17.67;;;19.50;99.90;;;;;;4757371;30;20047;-94
2022/08/16 05:46:26;;;;;;;22.92;17.85;;;19.60;99.90;;;;;;4758512;30;20127;-93
2022/08/16 05:48:52;;;;;;;22.65;17.83;;;19.60;99.90;;;;;;4758964;30;20058;-93
2022/08/16 05:51:18;;;;;;;24.73;17.90;;;19.70;99.90;;;;;;4762206;30;20396;-93
2022/08/16 05:53:58;;;;;;;20.77;17.55;;;19.70;99.90;;;;;;4761200;30;20048;-91
2022/08/16 05:56:46;;;;;;;24.88;18.95;;;19.80;99.90;;;;;;4759971;30;20062;-94
2022/08/16 05:59:53;;;;;;;24.63;17.55;;;19.80;99.90;;;;;;4755860;30;20512;-94
2022/08/16 06:02:26;;;;;;;29.38;18.52;;;19.90;99.90;;;;;;4740422;30;20137;-94
2022/08/16 06:05:08;;;;;;;20.63;16.42;;;19.90;99.90;;;;;;4778402;30;20087;-93
2022/08/16 06:07:48;;;;;;;18.83;16.17;;;20.00;99.90;;;;;;4747145;30;20062;-94
2022/08/16 06:10:23;;;;;;;18.38;15.85;;;20.10;99.90;;;;;;4757534;30;20120;-93
2022/08/16 06:12:57;;;;;;;21.40;15.75;;;20.10;99.90;;;;;;4762765;30;20082;-90
2022/08/16 06:15:32;;;;;;;19.92;15.57;;;20.30;99.90;;;;;;4761809;30;20043;-89
2022/08/16 06:17:58;;;;;;;22.42;16.73;;;20.30;99.90;;;;;;4755064;30;20051;-91
2022/08/16 06:20:37;;;;;;;22.75;16.15;;;20.40;99.90;;;;;;4777855;30;20062;-90
2022/08/16 06:23:38;;;;;;;18.48;15.10;;;20.60;99.90;;;;;;4762395;30;20100;-90
2022/08/16 06:26:07;;;;;;;23.38;16.02;;;20.70;99.90;;;;;;4740760;30;20046;-89
2022/08/16 06:28:46;;;;;;;23.38;14.90;;;20.70;99.90;;;;;;4755461;30;20057;-89
2022/08/16 06:31:15;;;;;;;21.40;15.95;;;20.80;99.90;;;;;;4761102;30;20083;-89
2022/08/16 06:33:57;;;;;;;18.52;14.75;;;21.00;99.90;;;;;;4760809;30;20051;-90
2022/08/16 06:36:25;;;;;;;21.70;14.65;;;21.00;99.90;;;;;;4752933;30;20047;-89
2022/08/16 06:38:59;;;;;;;18.70;14.32;;;21.10;99.90;;;;;;4760581;30;20469;-89
2022/08/16 06:41:26;;;;;;;20.75;14.85;;;21.30;99.90;;;;;;4759817;30;20051;-90
2022/08/16 06:44:18;;;;;;;24.02;14.52;;;21.30;99.90;;;;;;4759540;30;20063;-90
2022/08/16 06:46:44;;;;;;;19.55;14.65;;;21.40;99.90;;;;;;4760534;30;20398;-89
2022/08/16 06:49:40;;;;;;;20.77;14.55;;;21.40;99.90;;;;;;4760681;30;20166;-89
2022/08/16 06:52:35;;;;;;;17.17;13.85;;;21.50;99.90;;;;;;4762324;30;20062;-91
2022/08/16 06:55:18;;;;;;;17.48;14.02;;;21.60;99.90;;;;;;4763053;30;20055;-91
2022/08/16 06:57:47;;;;;;;;;;;21.70;99.90;;;;;;4760369;30;20043;-91
2022/08/16 07:00:19;;;;;;;16.15;13.40;;;21.70;99.90;;;;;;4761747;30;19925;-92
2022/08/16 07:03:12;;;;;;;20.70;13.05;;;21.90;99.90;;;;;;4764927;30;20087;-90
2022/08/16 07:06:11;;;;;;;18.02;13.23;;;21.90;99.90;;;;;;4763059;30;20055;-91
2022/08/16 07:08:49;;;;;;;18.35;13.52;;;22.00;99.90;;;;;;4757577;30;20056;-91
2022/08/16 07:11:51;;;;;;;;;;;;;;;;;;;;;
2022/08/16 07:15:05;;;;;;;16.73;13.57;;;22.20;99.90;;;;;;4721945;30;20123;-91
2022/08/16 07:17:48;;;;;;;20.40;13.75;;;22.30;99.90;;;;;;4746385;30;20113;-91
2022/08/16 07:20:32;;;;;;;23.60;14.20;;;22.40;99.90;;;;;;4761680;30;20165;-90
2022/08/16 07:26:11;;;;;;;15.27;12.38;;;22.60;99.90;;;;;;4752103;30;20063;-90
2022/08/16 07:28:40;;;;;;;15.27;11.43;;;22.60;99.90;;;;;;4754167;30;20063;-89
2022/08/16 07:31:31;;;;;;;15.63;11.60;;;22.70;99.90;;;;;;4754147;30;20099;-91
2022/08/16 07:34:06;;;;;;;15.23;11.68;;;22.80;99.90;;;;;;4760135;30;20301;-90
2022/08/16 07:37:10;;;;;;;14.70;10.80;;;22.90;99.90;;;;;;4769601;30;20059;-90
2022/08/16 07:39:52;;;;;;;17.00;10.13;;;23.00;99.90;;;;;;4743766;30;20087;-95
2022/08/16 07:42:52;;;;;;;;;;;;;;;;;;;;;
2022/08/16 07:45:42;;;;;;;14.18;10.18;;;23.30;99.90;;;;;;4785199;30;20047;-94
2022/08/16 07:51:30;;;;;;;16.85;10.35;;;23.40;99.90;;;;;;4769793;30;20108;-94
2022/08/16 07:54:03;;;;;;;13.52;9.73;;;23.40;99.90;;;;;;4753948;30;20386;-93
2022/08/16 07:56:29;;;;;;;16.77;9.40;;;23.40;99.90;;;;;;4754971;30;20048;-93
2022/08/16 07:59:18;;;;;;;14.70;9.30;;;23.50;99.90;;;;;;4769326;30;20493;-94
2022/08/16 08:02:03;;;;;;;12.68;9.35;;;23.50;99.90;;;;;;4771023;30;20054;-94
2022/08/16 08:04:34;;;;;;;12.25;8.77;;;23.70;99.90;;;;;;4769526;30;20055;-94
2022/08/16 08:07:48;;;;;;;16.63;9.00;;;23.70;99.90;;;;;;4769273;30;20052;-95
2022/08/16 08:09:58;;;;;;;18.05;8.85;;;23.80;99.90;;;;;;4763998;30;20098;-95
2022/08/16 08:12:50;;;;;;;17.23;8.90;;;23.80;99.90;;;;;;4756530;30;20055;-95
2022/08/16 08:15:24;;;;;;;13.35;9.25;;;23.90;99.90;;;;;;4769684;30;20059;-94
2022/08/16 08:18:25;;;;;;;13.38;8.95;;;23.90;99.90;;;;;;4760673;30;20048;-93
2022/08/16 08:21:25;;;;;;;18.98;9.27;;;24.00;99.90;;;;;;4771270;30;20063;-94
2022/08/16 08:27:19;;;;;;;12.25;8.80;;;24.20;99.90;;;;;;4728934;30;20201;-95
2022/08/16 08:29:56;;;;;;;12.38;8.93;;;24.30;99.90;;;;;;4757837;30;20205;-95
2022/08/16 08:32:44;;;;;;;15.15;8.68;;;24.30;99.90;;;;;;4737680;30;20055;-95
2022/08/16 08:35:39;;;;;;;12.15;8.43;;;24.40;99.90;;;;;;4750663;30;20110;-95
2022/08/16 08:38:44;;;;;;;13.18;8.02;;;24.50;99.90;;;;;;4764486;30;20126;-94
2022/08/16 08:41:28;;;;;;;12.13;8.40;;;24.50;99.90;;;;;;4757147;30;20060;-96
2022/08/16 08:44:06;;;;;;;12.57;8.30;;;24.60;99.90;;;;;;4737626;30;20051;-95
2022/08/16 08:46:47;;;;;;;10.35;7.32;;;24.60;99.90;;;;;;4737231;30;20052;-95
2022/08/16 08:50:03;;;;;;;15.75;6.50;;;24.80;99.90;;;;;;4752183;30;20052;-95
2022/08/16 08:54:07;;;;;;;15.80;6.88;;;24.80;99.90;;;;;;4736282;30;20047;-95
2022/08/16 08:56:35;;;;;;;9.57;6.57;;;24.90;99.90;;;;;;4734019;30;20056;-95
2022/08/16 08:59:59;;;;;;;12.80;6.80;;;25.00;99.90;;;;;;4749781;30;20052;-95
2022/08/16 09:02:15;;;;;;;10.95;6.50;;;25.10;99.90;;;;;;4727385;30;20284;-95
2022/08/16 09:05:13;;;;;;;12.18;6.53;;;25.10;99.90;;;;;;4732996;30;20056;-96
2022/08/16 09:08:17;;;;;;;10.25;6.63;;;25.20;99.90;;;;;;4733225;30;20056;-96
2022/08/16 09:11:02;;;;;;;9.90;6.13;;;25.30;99.90;;;;;;4730902;30;20158;-95
2022/08/16 09:13:41;;;;;;;;;;;;;;;;;;;;;
2022/08/16 09:16:31;;;;;;;;;;;25.50;99.90;;;;;;4763809;30;20040;-96
2022/08/16 09:19:21;;;;;;;10.23;6.55;;;25.60;99.90;;;;;;4743825;30;19936;-95
2022/08/16 09:22:27;;;;;;;14.50;6.30;;;25.60;99.90;;;;;;4767317;30;20047;-94
2022/08/16 09:25:45;;;;;;;11.43;6.43;;;25.70;99.90;;;;;;4730798;30;20067;-96
2022/08/16 09:29:30;;;;;;;;;;;;;;;;;;;;;
2022/08/16 09:32:28;;;;;;;16.05;5.75;;;25.90;99.90;;;;;;4758187;30;20051;-95
2022/08/16 09:35:20;;;;;;;7.85;5.22;;;26.00;99.90;;;;;;4758786;30;20086;-96
2022/08/16 09:54:28;;;;;;;8.32;3.85;;;26.50;99.90;;;;;;5138850;24;20055;-96
2022/08/16 09:58:01;;;;;;;9.43;4.30;;;26.60;99.90;;;;;;4756459;30;20047;-96
2022/08/16 10:04:24;;;;;;;7.80;4.65;;;26.80;99.90;;;;;;4687052;30;20063;-96
2022/08/16 10:07:24;;;;;;;7.00;4.57;;;26.80;99.90;;;;;;4740203;30;20071;-96
2022/08/16 10:13:24;;;;;;;8.07;3.90;;;27.00;99.90;;;;;;4748888;30;20040;-96
2022/08/16 10:16:41;;;;;;;12.02;4.03;;;27.10;99.90;;;;;;4755359;30;20610;-96
2022/08/16 10:22:55;;;;;;;10.68;3.95;;;27.20;99.90;;;;;;4734409;30;20538;-96
2022/08/16 10:29:13;;;;;;;10.77;4.63;;;27.30;99.90;;;;;;4743600;30;20086;-95
2022/08/16 10:39:08;;;;;;;;;;;;;;;;;;;;;
2022/08/16 10:42:06;;;;;;;7.80;4.90;;;27.60;99.90;;;;;;4737242;30;20048;-94
2022/08/16 10:45:14;;;;;;;8.50;5.25;;;27.60;99.90;;;;;;4731446;30;20067;-94
2022/08/16 10:51:46;;;;;;;7.90;4.32;;;27.70;99.90;;;;;;4629395;30;20058;-96
2022/08/16 10:54:27;;;;;;;13.77;5.30;;;27.80;99.90;;;;;;4663414;30;20053;-95
2022/08/16 10:57:17;;;;;;;9.70;5.10;;;27.90;99.90;;;;;;4646902;30;20062;-96
2022/08/16 11:00:11;;;;;;;7.93;5.00;;;28.00;99.90;;;;;;4625621;30;20339;-96
2022/08/16 11:09:17;;;;;;;13.93;5.70;;;28.00;99.90;;;;;;4685328;30;20083;-94
2022/08/16 11:15:42;;;;;;;11.98;5.00;;;28.00;99.90;;;;;;4737468;30;20083;-95
2022/08/16 11:18:41;;;;;;;9.40;5.60;;;28.00;99.90;;;;;;4683202;30;20419;-95
2022/08/16 11:21:46;;;;;;;8.25;5.10;;;28.10;99.90;;;;;;4735224;30;20060;-93
2022/08/16 11:28:33;;;;;;;12.18;5.30;;;28.20;99.90;;;;;;4733344;30;20072;-95
2022/08/16 11:31:48;;;;;;;12.80;6.05;;;28.30;99.90;;;;;;4672031;30;20068;-95
2022/08/16 11:38:38;;;;;;;11.80;5.45;;;28.40;99.90;;;;;;4697057;30;20060;-94
2022/08/16 11:41:34;;;;;;;10.10;5.40;;;28.50;99.90;;;;;;4691109;30;20065;-95
2022/08/16 12:11:21;;;;;;;9.13;3.92;;;29.00;99.90;;;;;;4749261;30;20430;-95
2022/08/16 12:14:28;;;;;;;9.75;4.35;;;29.00;99.30;;;;;;4680780;30;20052;-95
2022/08/16 12:17:37;;;;;;;10.15;4.10;;;29.00;98.20;;;;;;4670991;30;20058;-94
2022/08/16 12:20:27;;;;;;;9.25;4.13;;;29.00;98.80;;;;;;4680028;30;20163;-94
2022/08/16 12:24:01;;;;;;;8.50;3.63;;;29.00;98.90;;;;;;4679911;30;20056;-94
2022/08/16 12:26:48;;;;;;;7.65;3.58;;;28.90;99.00;;;;;;4662422;30;20236;-95
2022/08/16 12:29:40;;;;;;;5.95;3.38;;;28.80;97.80;;;;;;4662982;30;20093;-95
2022/08/16 12:32:49;;;;;;;11.05;4.40;;;28.90;98.70;;;;;;4680701;30;20089;-95
2022/08/16 12:35:52;;;;;;;11.32;4.28;;;28.90;98.70;;;;;;4602000;30;20066;-95
2022/08/16 12:42:08;;;;;;;9.25;3.45;;;29.00;98.60;;;;;;4703438;30;20059;-94
2022/08/16 12:44:57;;;;;;;10.43;3.95;;;29.20;98.10;;;;;;4733258;30;20056;-93
2022/08/16 12:50:57;;;;;;;13.05;3.90;;;29.40;97.10;;;;;;4735257;30;20056;-95
2022/08/16 12:53:46;;;;;;;10.27;3.47;;;29.50;97.40;;;;;;4715107;30;20502;-94
2022/08/16 12:56:56;;;;;;;11.38;3.78;;;29.60;97.40;;;;;;4729664;30;20063;-94
2022/08/16 13:03:09;;;;;;;10.48;3.58;;;29.50;97.70;;;;;;4688992;30;20503;-95
2022/08/16 13:06:02;;;;;;;10.80;3.85;;;29.40;96.80;;;;;;4733686;30;20052;-94
2022/08/16 13:27:54;;;;;;;11.68;3.75;;;28.20;95.00;;;;;;4755304;30;20079;-94
2022/08/16 13:31:24;;;;;;;10.30;4.18;;;28.20;96.50;;;;;;4772659;29;20406;-95
2022/08/16 13:34:57;;;;;;;10.20;5.53;;;28.10;96.80;;;;;;4742250;30;20058;-94
2022/08/16 13:37:45;;;;;;;12.05;5.55;;;28.00;97.60;;;;;;4755000;30;20056;-94
2022/08/16 13:40:34;;;;;;;10.90;4.60;;;28.00;98.40;;;;;;4674284;30;20061;-94
2022/08/16 13:49:47;;;;;;;14.70;5.70;;;27.80;99.90;;;;;;4770485;30;20059;-94
2022/08/16 13:52:57;;;;;;;16.75;6.07;;;28.00;99.90;;;;;;4738319;30;20059;-94
2022/08/16 13:56:11;;;;;;;12.23;5.82;;;28.20;99.90;;;;;;4740716;30;20059;-94
2022/08/16 13:59:20;;;;;;;12.63;5.05;;;28.30;99.90;;;;;;4726719;30;20165;-94
2022/08/16 14:02:27;;;;;;;13.23;5.57;;;28.60;99.90;;;;;;4726864;30;20064;-93
2022/08/16 14:05:43;;;;;;;13.48;5.60;;;28.70;99.90;;;;;;4755423;30;20117;-94
2022/08/16 14:08:29;;;;;;;15.30;5.07;;;28.90;99.90;;;;;;4680669;30;20066;-94
2022/08/16 14:14:33;;;;;;;13.40;5.63;;;29.00;99.90;;;;;;4745392;30;20062;-94
2022/08/16 14:17:19;;;;;;;14.02;5.07;;;29.10;99.90;;;;;;4733553;30;20060;-94
2022/08/16 14:20:31;;;;;;;10.43;5.07;;;29.10;99.90;;;;;;4736016;30;20052;-93
2022/08/16 14:29:52;;;;;;;8.55;5.72;;;28.60;99.90;;;;;;4743873;30;20072;-95
2022/08/16 14:32:52;;;;;;;10.63;4.90;;;28.40;99.90;;;;;;4753125;30;20058;-95
2022/08/16 14:36:16;;;;;;;10.32;3.80;;;28.30;98.50;;;;;;4708791;30;20066;-93
2022/08/16 14:39:24;;;;;;;8.52;3.20;;;28.40;98.30;;;;;;4758222;30;20055;-96
2022/08/16 14:41:53;;;;;;;;;;;28.50;98.20;;;;;;4758841;30;20055;-93
2022/08/16 14:44:39;;;;;;;9.50;5.90;;;28.40;99.40;;;;;;4770403;30;19926;-93
2022/08/16 14:47:37;;;;;;;20.92;5.63;;;28.40;99.90;;;;;;4754547;30;20087;-93
2022/08/16 14:53:58;;;;;;;11.60;4.60;;;28.60;99.90;;;;;;4734314;30;20102;-94
2022/08/16 15:00:50;;;;;;;10.35;4.70;;;28.10;99.90;;;;;;4682731;30;20055;-93
2022/08/16 15:03:50;;;;;;;;;;;;;;;;;;;;;
2022/08/16 15:06:25;;;;;;;11.63;4.65;;;27.90;99.90;;;;;;4768307;30;20056;-94
2022/08/16 15:09:35;;;;;;;9.35;3.75;;;27.80;99.90;;;;;;4760842;30;20051;-94
2022/08/16 15:12:32;;;;;;;10.38;3.85;;;27.90;99.90;;;;;;4660369;30;20094;-93
2022/08/16 15:15:37;;;;;;;8.45;4.32;;;28.00;99.90;;;;;;4750263;30;20178;-90
2022/08/16 15:18:32;;;;;;;10.15;5.55;;;27.90;99.90;;;;;;4732654;30;20064;-91
2022/08/16 15:21:11;;;;;;;9.15;4.55;;;28.00;99.90;;;;;;4750718;30;20051;-91
2022/08/16 15:26:51;;;;;;;12.73;5.78;;;28.20;99.90;;;;;;4702777;30;20090;-90
2022/08/16 15:32:54;;;;;;;6.63;4.10;;;28.30;99.90;;;;;;4753080;30;20055;-90
2022/08/16 15:35:54;;;;;;;10.85;4.55;;;28.40;99.90;;;;;;4738930;30;20048;-90
2022/08/16 15:38:27;;;;;;;9.95;4.78;;;28.50;99.90;;;;;;4736815;30;20051;-90
2022/08/16 15:41:22;;;;;;;10.65;4.93;;;28.50;99.90;;;;;;4734908;30;20201;-90
2022/08/16 15:43:53;;;;;;;7.95;4.25;;;28.40;99.90;;;;;;4726973;30;20056;-89
2022/08/16 15:46:22;;;;;;;11.70;4.72;;;28.40;99.90;;;;;;4718974;30;20046;-90
2022/08/16 15:48:51;;;;;;;8.27;4.53;;;28.30;99.60;;;;;;4719336;30;20075;-89
2022/08/16 15:51:37;;;;;;;10.57;4.05;;;28.20;99.60;;;;;;4719512;30;20059;-90
2022/08/16 15:54:06;;;;;;;8.65;4.18;;;28.10;99.70;;;;;;4719728;30;20244;-91
2022/08/16 15:57:15;;;;;;;17.13;4.35;;;28.00;99.90;;;;;;4719642;30;20060;-90
2022/08/16 16:00:27;;;;;;;7.00;3.80;;;27.90;99.90;;;;;;4708547;30;20136;-90
2022/08/16 16:03:02;;;;;;;7.22;3.30;;;27.90;99.90;;;;;;4735250;30;20059;-91
2022/08/16 16:05:48;;;;;;;8.57;3.20;;;27.90;99.60;;;;;;4750946;30;20056;-89
2022/08/16 16:08:29;;;;;;;6.60;2.53;;;28.00;99.00;;;;;;4750812;30;20114;-90
2022/08/16 16:14:03;;;;;;;5.43;3.17;;;28.20;97.80;;;;;;4708729;30;20063;-90
2022/08/16 16:17:03;;;;;;;6.15;3.75;;;28.20;98.70;;;;;;4751852;30;20417;-89
2022/08/16 16:19:53;;;;;;;4.80;3.08;;;28.00;98.70;;;;;;4733055;30;20091;-89
2022/08/16 16:22:32;;;;;;;5.88;2.90;;;28.20;99.50;;;;;;4715644;30;20153;-89
2022/08/16 16:24:57;;;;;;;6.93;2.83;;;28.20;98.30;;;;;;4719573;30;20463;-91